Time;durP1;ratioP1;P1;durP2;ratioP2;P2;SDS_P1;SDS_P2;PMS_P1;PMS_P2;Temp;Humidity;BMP_temperature;BMP_pressure;BME280_temperature;BME280_humidity;BME280_pressure;Samples;Min_cycle;Max_cycle;Signal;HPM_P1;HPM_P2
2023/01/22 00:01:56;;;;;;;10.93;6.22;;;;;;;5.54;100.00;93166.00;5050225;28;20115;-48
2023/01/22 00:04:22;;;;;;;13.55;6.22;;;;;;;5.53;100.00;93183.69;5040893;28;20036;-50
2023/01/22 00:06:47;;;;;;;8.18;4.75;;;;;;;5.68;100.00;93188.66;5048792;28;20033;-50
2023/01/22 00:09:14;;;;;;;5.22;3.55;;;;;;;5.72;100.00;93194.56;5037930;28;20032;-49
2023/01/22 00:11:40;;;;;;;7.72;3.88;;;;;;;5.67;100.00;93193.44;5042518;28;20577;-49
2023/01/22 00:14:06;;;;;;;5.60;3.75;;;;;;;5.62;100.00;93194.25;5043003;28;20029;-47
2023/01/22 00:16:32;;;;;;;8.13;4.35;;;;;;;5.60;100.00;93196.78;5041335;28;20032;-49
2023/01/22 00:18:57;;;;;;;9.27;6.07;;;;;;;5.67;100.00;93198.91;5048571;28;20035;-48
2023/01/22 00:21:23;;;;;;;8.40;4.88;;;;;;;5.76;100.00;93201.22;5042483;28;20032;-48
2023/01/22 00:23:48;;;;;;;5.22;3.72;;;;;;;5.72;100.00;93198.06;5049202;28;20028;-49
2023/01/22 00:26:15;;;;;;;5.70;2.85;;;;;;;5.84;100.00;93199.38;5046273;28;20116;-49
2023/01/22 00:28:43;;;;;;;5.65;2.22;;;;;;;5.84;100.00;93204.13;5048218;28;20025;-49
2023/01/22 00:31:10;;;;;;;8.93;4.55;;;;;;;5.64;100.00;93202.69;5045494;28;20420;-49
2023/01/22 00:33:37;;;;;;;10.02;4.43;;;;;;;5.58;100.00;93196.56;5044244;28;20041;-49
2023/01/22 00:36:07;;;;;;;7.38;4.47;;;;;;;5.38;100.00;93210.81;5048174;28;20750;-48
2023/01/22 00:38:33;;;;;;;3.17;2.78;;;;;;;5.43;100.00;93214.72;5044836;28;20044;-48
2023/01/22 00:41:01;;;;;;;7.28;4.85;;;;;;;5.29;100.00;93220.16;5048142;28;20035;-49
2023/01/22 00:43:26;;;;;;;10.32;5.75;;;;;;;5.35;100.00;93228.25;5047306;28;20064;-48
2023/01/22 00:45:52;;;;;;;10.13;4.82;;;;;;;5.50;100.00;93227.81;5044178;28;20098;-49
2023/01/22 00:48:17;;;;;;;9.40;4.53;;;;;;;5.49;100.00;93237.28;5051064;28;20040;-50
2023/01/22 00:50:43;;;;;;;5.05;3.50;;;;;;;5.60;100.00;93242.59;5041939;28;20021;-49
2023/01/22 00:53:08;;;;;;;5.03;4.13;;;;;;;5.63;100.00;93241.56;5048046;28;20036;-49
2023/01/22 00:55:33;;;;;;;8.15;6.65;;;;;;;5.89;100.00;93247.84;5044573;28;20021;-50
2023/01/22 00:57:59;;;;;;;14.23;8.32;;;;;;;5.77;100.00;93256.75;5049233;28;20492;-50
2023/01/22 01:00:24;;;;;;;10.85;5.00;;;;;;;5.93;100.00;93255.78;5047996;28;20032;-49
2023/01/22 01:05:34;;;;;;;61.90;25.10;;;;;;;5.80;100.00;93242.03;5049688;28;20574;-50
2023/01/22 01:07:59;;;;;;;119.68;47.58;;;;;;;5.97;100.00;93258.94;5049579;28;20029;-47
2023/01/22 01:10:25;;;;;;;41.72;20.50;;;;;;;5.83;100.00;93260.88;5047509;28;20025;-49
2023/01/22 01:12:50;;;;;;;19.98;10.25;;;;;;;5.93;100.00;93258.53;5043989;28;20029;-50
2023/01/22 01:15:16;;;;;;;35.53;18.58;;;;;;;5.99;100.00;93268.13;5047280;28;20021;-49
2023/01/22 01:17:41;;;;;;;12.63;6.63;;;;;;;6.04;100.00;93258.34;5049917;28;20572;-49
2023/01/22 01:20:07;;;;;;;17.20;11.07;;;;;;;6.07;100.00;93251.78;5040629;28;20717;-51
2023/01/22 01:22:33;;;;;;;33.80;19.73;;;;;;;6.10;100.00;93258.97;5042160;28;20036;-49
2023/01/22 01:24:58;;;;;;;11.68;8.52;;;;;;;6.22;100.00;93268.47;5043008;28;20036;-48
2023/01/22 01:27:24;;;;;;;13.30;7.57;;;;;;;6.24;100.00;93282.41;5043872;28;20029;-50
2023/01/22 01:29:49;;;;;;;4.65;2.95;;;;;;;6.41;100.00;93279.38;5041090;28;20107;-48
2023/01/22 01:32:15;;;;;;;5.80;4.15;;;;;;;6.35;100.00;93276.72;5040064;28;20056;-49
2023/01/22 01:34:40;;;;;;;7.97;3.67;;;;;;;6.33;100.00;93286.75;5037927;28;20028;-51
2023/01/22 01:37:05;;;;;;;7.03;4.55;;;;;;;6.28;100.00;93287.59;5041614;28;20021;-48
2023/01/22 01:39:31;;;;;;;7.47;4.55;;;;;;;6.36;100.00;93286.44;5035364;28;20491;-49
2023/01/22 01:41:56;;;;;;;5.90;4.80;;;;;;;6.52;100.00;93281.94;5043487;28;20404;-50
2023/01/22 01:44:23;;;;;;;4.32;3.15;;;;;;;6.49;100.00;93293.94;5041956;28;20025;-49
2023/01/22 01:47:04;;;;;;;3.63;3.30;;;;;;;6.66;100.00;93278.66;5047766;28;20021;-50
2023/01/22 01:49:32;;;;;;;5.63;3.97;;;;;;;6.59;100.00;93275.78;5044577;28;20451;-48
2023/01/22 01:52:04;;;;;;;3.63;2.50;;;;;;;6.65;100.00;93285.41;5035214;28;20017;-50
2023/01/22 01:54:29;;;;;;;3.80;2.92;;;;;;;6.75;100.00;93286.47;5043075;28;20088;-48
2023/01/22 01:57:03;;;;;;;4.43;2.20;;;;;;;6.81;100.00;93275.38;5042482;28;20017;-48
2023/01/22 01:59:32;;;;;;;3.42;2.80;;;;;;;6.82;100.00;93285.81;5045796;28;20052;-50
2023/01/22 02:01:57;;;;;;;;;;;;;;;6.77;100.00;93283.19;5046313;28;20029;-51
2023/01/22 02:04:23;;;;;;;4.95;3.88;;;;;;;6.49;100.00;93282.97;5041794;28;19920;-49
2023/01/22 02:06:49;;;;;;;3.60;3.05;;;;;;;6.47;100.00;93277.28;5045242;28;20025;-51
2023/01/22 02:09:14;;;;;;;3.13;2.50;;;;;;;6.62;100.00;93285.72;5044861;28;20044;-52
2023/01/22 02:11:40;;;;;;;10.27;4.63;;;;;;;6.58;100.00;93285.31;5045076;28;20020;-51
2023/01/22 02:14:27;;;;;;;5.75;4.53;;;;;;;6.62;100.00;93291.22;5056384;28;20031;-49
2023/01/22 02:17:19;;;;;;;9.85;5.30;;;;;;;6.38;100.00;93294.13;5042603;28;20638;-47
2023/01/22 02:19:45;;;;;;;20.50;9.98;;;;;;;6.28;100.00;93296.53;5042089;28;20500;-50
2023/01/22 02:22:12;;;;;;;18.70;9.25;;;;;;;6.43;100.00;93285.78;5036565;28;20064;-52
2023/01/22 02:24:38;;;;;;;14.18;8.45;;;;;;;6.35;100.00;93286.94;5044498;28;20036;-49
2023/01/22 02:27:03;;;;;;;13.25;7.32;;;;;;;6.26;100.00;93290.84;5059483;28;20397;-50
2023/01/22 02:29:29;;;;;;;9.18;5.60;;;;;;;6.31;100.00;93292.75;5038202;28;20107;-49
2023/01/22 02:31:54;;;;;;;8.82;6.53;;;;;;;6.23;100.00;93291.91;5037917;28;20021;-49
2023/01/22 02:34:23;;;;;;;12.10;6.25;;;;;;;6.09;100.00;93291.13;5034312;28;20513;-50
2023/01/22 02:36:49;;;;;;;11.25;6.85;;;;;;;6.07;100.00;93292.91;5026469;28;20072;-50
2023/01/22 02:39:15;;;;;;;8.30;6.22;;;;;;;6.19;100.00;93299.69;5041292;28;20037;-50
2023/01/22 02:41:40;;;;;;;7.50;5.85;;;;;;;6.21;100.00;93296.44;5046468;28;20503;-49
2023/01/22 02:44:06;;;;;;;18.88;14.02;;;;;;;6.30;100.00;93296.03;5037132;28;20431;-51
2023/01/22 02:46:32;;;;;;;11.43;7.35;;;;;;;6.49;100.00;93291.19;5045541;28;20039;-49
2023/01/22 02:48:57;;;;;;;8.57;5.32;;;;;;;6.23;100.00;93293.91;5043850;28;20059;-49
2023/01/22 02:51:24;;;;;;;4.15;3.70;;;;;;;6.17;100.00;93293.25;5036127;28;20553;-50
2023/01/22 02:53:50;;;;;;;7.88;4.43;;;;;;;6.25;100.00;93296.84;5038464;28;20037;-48
2023/01/22 02:56:15;;;;;;;7.53;4.35;;;;;;;6.33;100.00;93292.22;5042192;28;20079;-52
2023/01/22 02:58:40;;;;;;;9.50;3.78;;;;;;;6.34;100.00;93297.19;5043945;28;20159;-47
2023/01/22 03:01:19;;;;;;;9.88;4.70;;;;;;;6.43;100.00;93296.06;5044680;28;20037;-49
2023/01/22 03:04:11;;;;;;;10.32;3.30;;;;;;;6.50;100.00;93292.66;5042558;28;20456;-51
2023/01/22 03:06:42;;;;;;;5.63;3.13;;;;;;;6.48;100.00;93297.94;5043307;28;20485;-49
2023/01/22 03:09:10;;;;;;;7.60;3.83;;;;;;;6.54;100.00;93299.31;5043755;28;20036;-50
2023/01/22 03:11:37;;;;;;;9.68;3.63;;;;;;;6.59;100.00;93305.97;5042807;28;20099;-49
2023/01/22 03:22:15;;;;;;;8.63;6.07;;;;;;;6.33;100.00;93306.69;5036144;28;20044;-49
2023/01/22 03:24:41;;;;;;;7.85;5.93;;;;;;;6.24;100.00;93306.34;5040594;28;20037;-49
2023/01/22 03:27:07;;;;;;;12.40;5.38;;;;;;;6.19;100.00;93307.19;5039444;28;20099;-49
2023/01/22 03:29:33;;;;;;;7.20;5.22;;;;;;;6.13;100.00;93312.75;5039914;28;20045;-50
2023/01/22 03:31:59;;;;;;;10.40;3.95;;;;;;;6.20;100.00;93319.59;5040666;28;20036;-50
2023/01/22 03:34:24;;;;;;;13.93;7.95;;;;;;;6.23;100.00;93324.06;5042077;28;20033;-50
2023/01/22 03:36:50;;;;;;;16.30;10.48;;;;;;;6.04;100.00;93329.59;5045143;28;20025;-48
2023/01/22 03:39:15;;;;;;;33.83;17.23;;;;;;;5.99;100.00;93325.69;5047917;28;20120;-50
2023/01/22 03:41:41;;;;;;;14.88;9.63;;;;;;;5.87;100.00;93326.34;5043684;28;20419;-50
2023/01/22 03:44:10;;;;;;;20.08;12.15;;;;;;;5.78;100.00;93330.19;5058954;28;20036;-49
2023/01/22 03:46:39;;;;;;;12.13;7.70;;;;;;;5.82;100.00;93321.69;5038424;28;20049;-49
2023/01/22 03:49:05;;;;;;;16.30;7.25;;;;;;;6.01;100.00;93333.38;5045137;28;20538;-48
2023/01/22 03:51:30;;;;;;;14.77;7.10;;;;;;;5.98;100.00;93324.19;5039924;28;20033;-49
2023/01/22 03:53:57;;;;;;;15.18;6.65;;;;;;;6.17;100.00;93326.91;5041013;28;20039;-50
2023/01/22 03:56:23;;;;;;;12.23;7.93;;;;;;;6.16;100.00;93324.66;5045829;28;20048;-49
2023/01/22 03:58:49;;;;;;;9.27;5.93;;;;;;;6.00;100.00;93329.13;5038682;28;20485;-50
2023/01/22 04:01:17;;;;;;;8.93;5.50;;;;;;;5.98;100.00;93337.16;5040332;28;20490;-51
2023/01/22 04:03:43;;;;;;;15.82;5.68;;;;;;;5.93;100.00;93338.00;5043872;28;20421;-49
2023/01/22 04:06:10;;;;;;;10.60;5.38;;;;;;;6.02;100.00;93341.06;5046096;28;20043;-49
2023/01/22 04:08:37;;;;;;;12.57;5.60;;;;;;;5.92;100.00;93355.69;5040333;28;20108;-49
2023/01/22 04:11:03;;;;;;;14.80;9.93;;;;;;;5.79;100.00;93348.13;5045102;28;20061;-48
2023/01/22 04:13:30;;;;;;;21.67;12.40;;;;;;;5.90;100.00;93356.19;5047247;28;20574;-48
2023/01/22 04:15:56;;;;;;;26.30;14.75;;;;;;;6.00;100.00;93356.53;5047163;28;20048;-49
2023/01/22 04:18:21;;;;;;;21.60;10.50;;;;;;;5.96;100.00;93359.59;5049789;28;20423;-49
2023/01/22 04:20:47;;;;;;;11.77;8.07;;;;;;;5.98;100.00;93370.03;5047397;28;20029;-50
2023/01/22 04:23:13;;;;;;;15.20;10.25;;;;;;;5.88;100.00;93366.94;5047735;28;20037;-48
2023/01/22 04:25:39;;;;;;;13.70;9.00;;;;;;;5.74;100.00;93370.13;5040921;28;20028;-50
2023/01/22 04:28:05;;;;;;;14.55;10.73;;;;;;;5.75;100.00;93363.38;5046655;28;20596;-48
2023/01/22 04:30:31;;;;;;;13.65;9.20;;;;;;;5.76;100.00;93368.31;5049832;28;20060;-49
2023/01/22 04:32:56;;;;;;;14.55;9.32;;;;;;;5.95;100.00;93371.09;5044500;28;20029;-52
2023/01/22 04:35:23;;;;;;;17.20;8.93;;;;;;;5.91;100.00;93379.59;5049391;28;20048;-50
2023/01/22 04:37:49;;;;;;;23.65;12.27;;;;;;;5.80;100.00;93371.53;5049585;28;20021;-51
2023/01/22 04:40:15;;;;;;;11.23;5.53;;;;;;;5.85;100.00;93375.44;5045204;28;20762;-49
2023/01/22 04:42:40;;;;;;;17.92;9.43;;;;;;;5.79;100.00;93383.72;5044994;28;20115;-48
2023/01/22 04:45:06;;;;;;;12.85;5.90;;;;;;;5.88;100.00;93396.34;5044963;28;20056;-49
2023/01/22 04:47:32;;;;;;;44.50;23.08;;;;;;;5.91;100.00;93390.56;5046493;28;20025;-49
2023/01/22 04:49:57;;;;;;;44.63;24.85;;;;;;;6.07;100.00;93391.56;5047235;28;20078;-50
2023/01/22 04:52:23;;;;;;;37.08;20.23;;;;;;;5.96;100.00;93397.22;5038254;28;20067;-50
2023/01/22 04:54:50;;;;;;;16.65;10.02;;;;;;;5.89;100.00;93395.81;5042024;28;20025;-49
2023/01/22 04:57:16;;;;;;;7.07;5.35;;;;;;;5.93;100.00;93388.03;5038114;28;20747;-49
2023/01/22 04:59:41;;;;;;;5.70;3.55;;;;;;;6.08;100.00;93393.81;5044182;28;20029;-49
2023/01/22 05:02:07;;;;;;;7.40;3.45;;;;;;;6.24;100.00;93407.78;5046867;28;20029;-50
2023/01/22 05:04:32;;;;;;;6.43;3.38;;;;;;;6.43;100.00;93397.50;5044829;28;20082;-50
2023/01/22 05:06:58;;;;;;;10.50;3.92;;;;;;;6.44;100.00;93390.75;5048845;28;20025;-48
2023/01/22 05:09:24;;;;;;;3.20;2.90;;;;;;;6.30;100.00;93400.97;5043626;28;20032;-49
2023/01/22 05:11:50;;;;;;;5.00;3.38;;;;;;;6.30;100.00;93406.44;5047454;28;20496;-48
2023/01/22 05:14:15;;;;;;;6.25;4.10;;;;;;;6.26;100.00;93403.25;5047302;28;20025;-51
2023/01/22 05:16:41;;;;;;;5.75;3.88;;;;;;;6.28;100.00;93397.25;5046890;28;20040;-49
2023/01/22 05:19:06;;;;;;;6.07;3.67;;;;;;;6.34;100.00;93415.09;5048925;28;20625;-48
2023/01/22 05:21:32;;;;;;;6.35;4.07;;;;;;;6.52;100.00;93421.81;5046255;28;20021;-49
2023/01/22 05:23:57;;;;;;;16.30;9.27;;;;;;;6.35;100.00;93424.03;5039731;28;20032;-50
2023/01/22 05:26:22;;;;;;;15.50;8.07;;;;;;;6.29;100.00;93426.13;5042707;28;20021;-49
2023/01/22 05:28:48;;;;;;;13.85;7.47;;;;;;;6.25;100.00;93420.22;5044150;28;20473;-50
2023/01/22 05:31:13;;;;;;;8.05;3.78;;;;;;;6.41;100.00;93427.47;5042985;28;20037;-49
2023/01/22 05:33:39;;;;;;;3.38;2.85;;;;;;;6.52;100.00;93430.03;5036437;28;20470;-49
2023/01/22 05:36:05;;;;;;;5.18;3.80;;;;;;;6.40;100.00;93432.19;5040540;28;20037;-50
2023/01/22 05:38:32;;;;;;;13.95;9.07;;;;;;;6.43;100.00;93438.66;5044511;28;20429;-51
2023/01/22 05:40:57;;;;;;;20.60;15.07;;;;;;;6.36;100.00;93447.47;5044503;28;20559;-49
2023/01/22 05:43:22;;;;;;;17.48;12.00;;;;;;;6.22;100.00;93449.41;5039622;28;20119;-49
2023/01/22 05:45:48;;;;;;;23.15;14.50;;;;;;;6.29;100.00;93453.56;5044513;28;20032;-49
2023/01/22 05:48:13;;;;;;;29.35;15.30;;;;;;;6.28;100.00;93458.28;5046499;28;20056;-50
2023/01/22 05:50:39;;;;;;;22.55;14.52;;;;;;;6.35;100.00;93462.44;5038608;28;20704;-50
2023/01/22 05:53:06;;;;;;;26.63;15.55;;;;;;;6.25;100.00;93461.34;5040324;28;20195;-49
2023/01/22 05:55:32;;;;;;;22.23;14.35;;;;;;;6.27;100.00;93458.81;5040046;28;20028;-50
2023/01/22 05:57:58;;;;;;;24.83;15.95;;;;;;;6.16;100.00;93469.94;5047995;28;20044;-50
2023/01/22 06:00:23;;;;;;;26.58;17.13;;;;;;;6.17;100.00;93466.69;5044336;28;20029;-50
2023/01/22 06:02:48;;;;;;;21.48;14.15;;;;;;;6.13;100.00;93468.25;5039976;28;20069;-50
2023/01/22 06:05:14;;;;;;;24.70;17.08;;;;;;;6.30;100.00;93476.97;5043706;28;20481;-50
2023/01/22 06:07:39;;;;;;;16.10;11.00;;;;;;;6.31;100.00;93479.19;5042231;28;20029;-49
2023/01/22 06:10:05;;;;;;;12.32;7.80;;;;;;;6.42;100.00;93478.28;5043066;28;20055;-51
2023/01/22 06:12:31;;;;;;;12.45;7.85;;;;;;;6.44;100.00;93486.72;5045169;28;20059;-50
2023/01/22 06:14:56;;;;;;;10.98;8.43;;;;;;;6.38;100.00;93488.81;5042752;28;20029;-50
2023/01/22 06:17:22;;;;;;;16.80;11.18;;;;;;;6.42;100.00;93497.47;5044801;28;20028;-48
2023/01/22 06:19:47;;;;;;;15.70;11.07;;;;;;;6.53;100.00;93502.81;5044841;28;20033;-49
2023/01/22 06:22:13;;;;;;;15.95;11.77;;;;;;;6.52;100.00;93498.59;5046924;28;20032;-48
2023/01/22 06:24:38;;;;;;;21.38;13.40;;;;;;;6.50;100.00;93503.84;5043470;28;20033;-48
2023/01/22 06:27:04;;;;;;;23.98;16.58;;;;;;;6.50;100.00;93503.84;5042174;28;20029;-49
2023/01/22 06:29:30;;;;;;;12.90;8.43;;;;;;;6.58;100.00;93504.75;5039180;28;20110;-48
2023/01/22 06:31:55;;;;;;;6.43;3.70;;;;;;;6.69;100.00;93501.84;5044804;28;20032;-48
2023/01/22 06:34:21;;;;;;;6.95;4.60;;;;;;;6.73;100.00;93513.25;5047535;28;20021;-47
2023/01/22 06:36:46;;;;;;;7.60;5.13;;;;;;;6.80;100.00;93515.34;5040290;28;20037;-49
2023/01/22 06:39:12;;;;;;;17.67;8.77;;;;;;;6.82;100.00;93512.84;5040183;28;20037;-49
2023/01/22 06:41:37;;;;;;;11.70;7.40;;;;;;;6.79;100.00;93516.63;5039140;28;20103;-49
2023/01/22 06:44:03;;;;;;;16.75;10.00;;;;;;;6.91;100.00;93523.41;5044750;28;20036;-50
2023/01/22 06:46:28;;;;;;;8.57;6.15;;;;;;;6.99;100.00;93526.31;5043035;28;20616;-50
2023/01/22 06:48:54;;;;;;;6.75;4.85;;;;;;;7.15;100.00;93525.28;5043843;28;20044;-50
2023/01/22 06:51:19;;;;;;;6.78;5.32;;;;;;;7.10;100.00;93524.13;5043171;28;20037;-50
2023/01/22 06:53:45;;;;;;;7.63;5.85;;;;;;;7.16;100.00;93535.75;5041688;28;20036;-49
2023/01/22 06:56:10;;;;;;;11.55;8.75;;;;;;;7.18;100.00;93526.97;5038059;28;20446;-49
2023/01/22 06:58:36;;;;;;;26.02;12.18;;;;;;;7.25;100.00;93535.34;5040298;28;20029;-50
2023/01/22 07:01:03;;;;;;;38.30;19.60;;;;;;;7.28;100.00;93533.53;5040221;28;20025;-49
2023/01/22 07:03:29;;;;;;;13.60;7.93;;;;;;;7.21;100.00;93540.41;5045953;28;20029;-49
2023/01/22 07:05:58;;;;;;;7.97;5.25;;;;;;;7.25;100.00;93538.09;5033189;28;20570;-49
2023/01/22 07:08:24;;;;;;;7.40;5.65;;;;;;;7.43;100.00;93542.75;5042971;28;20091;-50
2023/01/22 07:10:50;;;;;;;12.43;6.47;;;;;;;7.49;100.00;93545.44;5041818;28;20778;-50
2023/01/22 07:13:15;;;;;;;11.35;4.75;;;;;;;7.45;100.00;93545.72;5040315;28;20075;-49
2023/01/22 07:15:41;;;;;;;5.35;4.70;;;;;;;7.37;100.00;93547.63;5043431;28;20028;-48
2023/01/22 07:18:09;;;;;;;7.40;4.68;;;;;;;7.44;100.00;93554.50;5045755;28;20021;-50
2023/01/22 07:20:35;;;;;;;8.45;6.28;;;;;;;7.51;100.00;93553.88;5038020;28;20493;-49
2023/01/22 07:23:00;;;;;;;9.27;6.38;;;;;;;7.58;100.00;93562.22;5043774;28;20025;-48
2023/01/22 07:25:26;;;;;;;8.45;5.93;;;;;;;7.58;100.00;93558.72;5040516;28;20542;-47
2023/01/22 07:27:58;;;;;;;17.65;7.45;;;;;;;7.51;100.00;93565.59;5049696;28;20031;-48
2023/01/22 07:30:24;;;;;;;14.27;5.38;;;;;;;7.54;100.00;93567.31;5041614;28;20053;-49
2023/01/22 07:32:50;;;;;;;9.10;5.45;;;;;;;7.52;100.00;93564.34;5043845;28;20036;-50
2023/01/22 07:35:16;;;;;;;4.88;3.22;;;;;;;7.52;100.00;93566.34;5035430;28;20025;-48
2023/01/22 07:37:42;;;;;;;6.80;5.38;;;;;;;7.61;100.00;93574.94;5046915;28;20028;-49
2023/01/22 07:40:08;;;;;;;6.95;5.00;;;;;;;7.65;100.00;93574.59;5042140;28;20523;-49
2023/01/22 07:42:34;;;;;;;5.78;3.92;;;;;;;7.76;100.00;93581.91;5046795;28;20425;-48
2023/01/22 07:44:59;;;;;;;10.85;4.80;;;;;;;7.74;100.00;93582.44;5041826;28;20037;-48
2023/01/22 07:47:25;;;;;;;5.70;3.78;;;;;;;7.63;100.00;93586.13;5045799;28;20029;-46
2023/01/22 07:49:50;;;;;;;4.78;2.65;;;;;;;7.78;100.00;93579.38;5045662;28;20121;-49
2023/01/22 07:52:16;;;;;;;6.35;3.90;;;;;;;7.72;100.00;93584.22;5051687;28;20036;-47
2023/01/22 07:54:41;;;;;;;7.47;4.40;;;;;;;7.69;100.00;93588.03;5047909;28;20116;-47
2023/01/22 07:57:06;;;;;;;5.65;3.40;;;;;;;7.81;100.00;93586.56;5048824;28;20044;-48
2023/01/22 07:59:33;;;;;;;4.32;3.55;;;;;;;7.89;100.00;93595.66;5046023;28;20489;-49
2023/01/22 08:01:58;;;;;;;3.35;2.42;;;;;;;8.06;100.00;93593.34;5045592;28;20025;-50
2023/01/22 08:04:24;;;;;;;6.72;2.70;;;;;;;8.37;98.08;93587.00;5040833;28;20037;-49
2023/01/22 08:06:50;;;;;;;5.10;2.90;;;;;;;8.51;95.38;93587.75;5046874;28;20505;-51
2023/01/22 08:09:23;;;;;;;8.10;3.30;;;;;;;8.77;96.36;93590.44;5044722;28;20420;-49
2023/01/22 08:11:48;;;;;;;6.07;3.15;;;;;;;9.05;95.54;93596.78;5043837;28;20104;-51
2023/01/22 08:14:14;;;;;;;4.85;2.75;;;;;;;9.08;95.00;93590.22;5046924;28;20087;-50
2023/01/22 08:16:39;;;;;;;2.88;2.25;;;;;;;9.72;92.58;93595.22;5044464;28;20079;-50
2023/01/22 08:19:05;;;;;;;7.75;2.72;;;;;;;11.55;84.05;93593.47;5044385;28;20674;-49
2023/01/22 08:21:31;;;;;;;7.13;2.10;;;;;;;12.52;77.55;93596.72;5041018;28;20080;-49
2023/01/22 08:23:57;;;;;;;8.77;2.60;;;;;;;12.66;73.75;93598.00;5044838;28;20033;-48
2023/01/22 08:26:22;;;;;;;6.57;2.47;;;;;;;12.42;72.21;93602.13;5047628;28;20025;-49
2023/01/22 08:28:48;;;;;;;6.70;2.72;;;;;;;11.46;77.28;93602.28;5043666;28;20048;-51
2023/01/22 08:31:13;;;;;;;4.72;1.60;;;;;;;11.69;74.63;93605.88;5044197;28;20126;-49
2023/01/22 08:33:39;;;;;;;2.80;1.40;;;;;;;11.50;74.89;93605.44;5045399;28;20037;-50
2023/01/22 08:36:05;;;;;;;2.13;1.80;;;;;;;11.35;76.60;93606.16;5043034;28;20122;-49
2023/01/22 08:38:30;;;;;;;4.03;1.90;;;;;;;10.42;78.93;93612.41;5043555;28;20539;-49
2023/01/22 08:40:56;;;;;;;3.88;2.20;;;;;;;10.15;82.88;93608.41;5041089;28;20021;-49
2023/01/22 08:43:21;;;;;;;1.90;1.38;;;;;;;9.97;81.78;93618.38;5045793;28;20032;-49
2023/01/22 08:45:48;;;;;;;3.10;1.83;;;;;;;9.65;84.48;93623.44;5039970;28;20553;-48
2023/01/22 08:48:13;;;;;;;4.88;2.92;;;;;;;9.41;87.41;93621.75;5041185;28;20767;-50
2023/01/22 08:50:39;;;;;;;5.47;4.03;;;;;;;9.49;87.96;93614.28;5046612;28;20040;-50
2023/01/22 08:53:05;;;;;;;5.28;3.10;;;;;;;9.03;91.43;93618.63;5043503;28;20119;-50
2023/01/22 08:55:30;;;;;;;3.45;2.88;;;;;;;9.15;91.55;93614.34;5044481;28;20466;-50
2023/01/22 08:57:56;;;;;;;4.90;2.50;;;;;;;9.33;90.98;93614.69;5044717;28;20025;-49
2023/01/22 09:00:23;;;;;;;5.13;2.78;;;;;;;9.34;92.52;93608.66;5046412;28;20495;-48
2023/01/22 09:02:48;;;;;;;3.17;2.15;;;;;;;9.48;91.17;93612.09;5040730;28;20619;-53
2023/01/22 09:05:14;;;;;;;2.95;2.22;;;;;;;9.52;89.69;93615.25;5041730;28;20036;-51
2023/01/22 09:07:40;;;;;;;2.88;1.58;;;;;;;9.54;88.38;93607.91;5044230;28;20040;-48
2023/01/22 09:10:07;;;;;;;5.45;2.13;;;;;;;9.78;87.97;93604.81;5046688;28;20041;-48
2023/01/22 09:12:35;;;;;;;8.48;2.47;;;;;;;9.91;88.28;93610.25;5044300;28;20025;-48
2023/01/22 09:15:02;;;;;;;3.55;1.83;;;;;;;10.17;83.80;93603.81;5046079;28;20029;-48
2023/01/22 09:17:27;;;;;;;2.35;2.00;;;;;;;9.91;85.86;93601.97;5046221;28;20029;-49
2023/01/22 09:19:53;;;;;;;5.60;1.48;;;;;;;9.87;84.48;93601.56;5035926;28;20043;-49
2023/01/22 09:22:19;;;;;;;2.83;1.55;;;;;;;9.77;85.53;93595.06;5042737;28;20029;-48
2023/01/22 09:24:45;;;;;;;1.95;1.85;;;;;;;9.71;86.10;93610.25;5038006;28;20071;-48
2023/01/22 09:27:11;;;;;;;2.85;1.50;;;;;;;9.45;87.59;93602.88;5039649;28;20120;-48
2023/01/22 09:29:37;;;;;;;2.58;2.25;;;;;;;9.50;88.42;93610.28;5040258;28;20063;-49
2023/01/22 09:32:05;;;;;;;7.65;4.43;;;;;;;9.40;86.51;93609.25;5039563;28;20021;-51
2023/01/22 09:34:30;;;;;;;3.80;2.10;;;;;;;9.30;88.42;93610.25;5042440;28;20071;-50
2023/01/22 09:36:56;;;;;;;3.58;2.00;;;;;;;9.32;88.19;93611.19;5040226;28;20060;-48
2023/01/22 09:39:21;;;;;;;3.83;1.98;;;;;;;9.07;89.70;93619.03;5042999;28;20028;-50
2023/01/22 09:41:50;;;;;;;3.30;2.47;;;;;;;9.09;92.10;93616.50;5039716;28;20033;-48
2023/01/22 09:44:23;;;;;;;4.00;2.50;;;;;;;9.09;89.23;93619.25;5037482;28;20071;-49
2023/01/22 09:47:02;;;;;;;2.35;2.15;;;;;;;9.07;90.33;93621.78;5038441;28;20039;-49
2023/01/22 09:49:36;;;;;;;2.28;2.08;;;;;;;9.13;89.12;93622.41;5041776;28;20083;-48
2023/01/22 09:52:02;;;;;;;2.67;1.92;;;;;;;9.08;90.12;93619.78;5042875;28;20044;-47
2023/01/22 09:54:28;;;;;;;1.58;1.48;;;;;;;9.09;88.94;93608.22;5043828;28;20037;-48
2023/01/22 09:57:00;;;;;;;3.25;2.33;;;;;;;9.13;89.07;93594.13;5036175;28;20052;-49
2023/01/22 09:59:31;;;;;;;2.72;2.33;;;;;;;10.19;84.59;93608.78;5037240;28;20037;-47
2023/01/22 10:02:02;;;;;;;2.53;1.95;;;;;;;10.42;83.31;93604.88;5042303;28;20035;-50
2023/01/22 10:04:34;;;;;;;2.38;1.60;;;;;;;10.99;79.38;93602.00;5055709;28;20432;-48
2023/01/22 10:07:00;;;;;;;1.67;1.25;;;;;;;10.85;77.67;93606.91;5039402;28;20037;-49
2023/01/22 10:09:30;;;;;;;1.85;1.33;;;;;;;10.88;78.67;93610.63;5039028;28;20036;-49
2023/01/22 10:11:55;;;;;;;;;;;;;;;10.72;77.01;93614.63;5039066;28;20522;-49
2023/01/22 10:14:22;;;;;;;4.45;1.33;;;;;;;10.36;78.58;93620.88;5043355;28;19920;-49
2023/01/22 10:16:48;;;;;;;2.70;1.92;;;;;;;10.03;80.77;93613.44;5035427;28;20098;-47
2023/01/22 10:19:16;;;;;;;3.25;2.20;;;;;;;10.01;81.92;93615.25;5038699;28;20439;-50
2023/01/22 10:21:45;;;;;;;3.38;3.08;;;;;;;10.11;82.24;93622.56;5038611;28;20987;-47
2023/01/22 10:24:11;;;;;;;2.75;2.28;;;;;;;9.94;82.74;93616.69;5042471;28;20037;-49
2023/01/22 10:26:49;;;;;;;1.88;1.77;;;;;;;10.06;80.05;93620.66;5038319;28;20029;-50
2023/01/22 10:29:32;;;;;;;1.98;1.73;;;;;;;10.25;79.46;93620.41;5038872;28;20443;-48
2023/01/22 10:32:00;;;;;;;2.08;1.58;;;;;;;11.43;74.00;93611.69;5045341;28;20509;-48
2023/01/22 10:34:34;;;;;;;2.80;1.50;;;;;;;11.52;72.32;93605.63;5040147;28;20054;-48
2023/01/22 10:37:15;;;;;;;1.77;1.63;;;;;;;11.37;71.78;93602.81;5039613;28;20561;-50
2023/01/22 10:39:43;;;;;;;2.05;1.80;;;;;;;11.32;72.83;93609.28;5044700;28;20029;-49
2023/01/22 10:42:22;;;;;;;2.47;1.35;;;;;;;12.31;67.48;93615.59;5041355;28;20044;-48
2023/01/22 10:44:47;;;;;;;3.25;1.55;;;;;;;11.57;68.77;93613.00;5042404;28;20071;-49
2023/01/22 10:47:19;;;;;;;6.15;4.10;;;;;;;11.25;72.99;93599.69;5043032;28;20114;-49
2023/01/22 10:49:46;;;;;;;3.03;2.03;;;;;;;12.38;67.06;93610.06;5049379;28;20028;-47
2023/01/22 10:52:40;;;;;;;1.73;1.42;;;;;;;12.55;65.29;93598.38;5040047;28;20037;-50
2023/01/22 10:55:06;;;;;;;1.33;1.15;;;;;;;12.96;62.56;93600.66;5040275;28;20732;-48
2023/01/22 10:57:34;;;;;;;1.35;1.00;;;;;;;12.82;61.46;93589.06;5040243;28;20039;-48
2023/01/22 11:00:14;;;;;;;1.65;1.42;;;;;;;13.70;59.77;93598.06;5041928;28;20464;-48
2023/01/22 11:02:46;;;;;;;1.23;1.13;;;;;;;14.16;58.68;93601.22;5042034;28;20040;-48
2023/01/22 11:05:23;;;;;;;1.85;1.00;;;;;;;14.28;57.44;93610.53;5042540;28;20103;-47
2023/01/22 11:07:59;;;;;;;1.80;1.35;;;;;;;14.81;56.54;93607.25;5038087;28;20032;-48
2023/01/22 11:10:54;;;;;;;3.65;1.25;;;;;;;15.64;55.15;93604.19;5038292;28;20025;-49
2023/01/22 11:13:38;;;;;;;1.60;1.38;;;;;;;15.02;55.92;93608.31;5047144;28;20593;-46
2023/01/22 11:16:16;;;;;;;1.25;1.15;;;;;;;16.31;53.05;93612.78;5043676;28;20519;-47
2023/01/22 11:18:47;;;;;;;2.20;1.33;;;;;;;16.54;50.36;93609.66;5044888;28;20048;-48
2023/01/22 11:21:19;;;;;;;1.83;1.50;;;;;;;16.33;52.36;93615.03;5037636;28;20037;-47
2023/01/22 11:23:51;;;;;;;3.03;1.33;;;;;;;16.61;51.68;93606.72;5040381;28;20532;-49
2023/01/22 11:26:19;;;;;;;3.55;1.10;;;;;;;16.54;50.09;93610.41;5042841;28;20412;-47
2023/01/22 11:28:53;;;;;;;1.80;1.23;;;;;;;16.43;51.69;93602.56;5039660;28;20029;-47
2023/01/22 11:31:37;;;;;;;2.65;1.80;;;;;;;16.59;51.20;93600.25;5041619;28;20029;-48
2023/01/22 11:34:11;;;;;;;1.50;1.30;;;;;;;18.05;47.73;93598.19;5041233;28;20048;-47
2023/01/22 11:36:44;;;;;;;1.15;0.88;;;;;;;17.50;47.58;93606.88;5042680;28;20083;-47
2023/01/22 11:39:58;;;;;;;1.08;0.98;;;;;;;16.94;49.54;93604.25;5052311;28;20068;-46
2023/01/22 11:42:42;;;;;;;3.72;1.10;;;;;;;16.30;50.27;93610.59;5024284;28;20033;-47
2023/01/22 11:45:17;;;;;;;1.40;1.23;;;;;;;15.87;50.79;93612.22;5038352;28;20037;-47